Warning: Attempt to read property "ID" on null in /home/clients/389d046660254b1a70042676601e7fb4/sites/bgs.bac-a-sable.org/wp-includes/post-template.php on line 679

Warning: Attempt to read property "post_type" on null in /home/clients/389d046660254b1a70042676601e7fb4/sites/bgs.bac-a-sable.org/wp-includes/post-template.php on line 680
class="wp-singular -template-default wp-embed-responsive paged-197 wp-theme-bgs">

Index génisses

6 658 animaux

Nom DN ▼ Père Mère GPM P/G CD ISU INEL TP TB Lait CEL i_MA IMS Éleveur CP Ville
VENISE 28-06-2024 ROQUEFORT PALERME LOUSTIC G 81 137 26 -0.50 -0.30 699 1.00 0.3 0.7 EARL ROLLAND 35720 PLEUGUENEUC
VARTAN 28-06-2024 SAPHIR SAFRAN OPTIMAL G 77 142 25 -0.20 -1.00 670 1.10 0.1 0.8 EARL DE MALBOSC 48500 LA CANOURGUE
VADROUILLE 28-06-2024 BOXER P SOUPLINE NORO AS 130 32 2.10 3.10 212 -0.50 0.2 0.3 EARL DE LA PATIENCE 50670 LE MESNIL GILBERT
VALSEUSE 27-06-2024 SUPERBOY MELODIE 70 INDIANA G 80 131 34 2.40 3.40 298 0.20 0.4 0.2 GAEC CHAYRIGUES 12150 SEVERAC D'AVEYRON
VESPA 27-06-2024 LBB RALICE TESLA PHENIX G 83 142 30 1.10 0.70 473 -0.30 1.0 2.0 GAEC DE LA COTE 21520 BISSEY LA COTE
VAHINEY 27-06-2024 LBB RALICE TODAY FLEPS G 83 141 34 0.80 1.20 679 0.70 1.6 1.4 EARL LEMENOREL 50670 LE MESNIL GILBERT
VARICELLE 26-06-2024 TABEO SAMANTHA OPTIMAL G 80 149 39 0.80 -0.30 896 -0.20 0.5 0.8 GAEC DES DEUX SAPINS 21450 AMPILLY LES BORDES
VANTARDE 26-06-2024 LBB RALICE TAQUINE SEVILLA G 80 160 68 0.30 -2.40 1676 -0.10 -0.1 0.8 GAEC DE LA LEUDIERE 53440 MARCILLE LA VILLE
VEDETTE 26-06-2024 STING 19SPECIALE NATUREL G 81 137 33 0.00 0.50 757 0.80 0.6 0.2 EARL DE LA MARGUERITE 67140 STOTZHEIM
VOLTA 26-06-2024 SAPHIR RITA O MALLEY G 80 160 48 2.00 2.70 654 0.30 1.2 1.5 GAEC LES MIMOSAS 85430 AUBIGNY LES CLOUZEAUX
VVAMPAS 25-06-2024 TABEO TRUST NORO G 80 144 16 1.60 3.60 -54 1.60 0.6 0.6 GAEC DE LA BELLERIE 12120 SALMIECH
VENUS 25-06-2024 ROQUEFORT TAMARA PENALTY G 83 158 62 3.40 3.20 786 1.20 0.6 0.4 SCEA DU CAMP DEL BOSC 12120 COMPS LA GRAND VILLE
VALY 25-06-2024 TABEO ODE LARGO G 80 157 30 1.60 0.20 521 1.90 0.5 1.1 GAEC DES DEUX SAPINS 21450 AMPILLY LES BORDES
VANESSA 25-06-2024 SATURNE SOPHIA PENALTY G 80 150 41 0.50 2.60 812 0.20 0.1 -0.3 LEGTA LA BAROTTE - 21400 CHATILLON SUR SEINE
VRELUCHE 25-06-2024 TABEO NAOMIE ANIBAL G 78 133 25 0.20 -1.10 605 0.70 0.3 1.0 GAEC LIEVIN 62380 BLEQUIN
VANIA 25-06-2024 TABEO TANIA OPTIMAL G 80 157 31 2.20 3.00 289 1.20 0.8 1.1 GAEC LES RIVIERES 48230 CHANAC
VISION 25-06-2024 LBB RALICE SELFIE DOBOY G 83 148 50 1.60 1.40 835 0.20 1.1 1.3 GAEC DE LA LEUDIERE 53440 MARCILLE LA VILLE
VERTIGO 24-06-2024 GUY TAYGETA PACTOLE G 83 159 13 2.20 3.20 -176 1.80 1.2 1.9 GAEC DE LA BELLERIE 12120 SALMIECH
VITAMINE 24-06-2024 CRAZYHORSE TARTIFLETE OPTIMAL G 80 175 62 0.50 1.10 1363 1.10 1.0 1.2 GAEC ROUAUX 35250 ST AUBIN D AUBIGNE
VETUSTE 24-06-2024 TORONTO RAUGUSTE AUGUST G 80 138 49 0.70 -1.20 1184 1.30 -0.6 -0.3 GAEC MATIGNON 49330 LES HAUTS D ANJOU
VITAA 24-06-2024 ROCKEUR PARADISE CADENCE AS 130 21 0.70 -0.80 424 0.60 0.2 0.5 GAEC DES BRUNES 52700 BOURDONS SUR ROGNON
VICONTESSE 23-06-2024 SUPERBOY 069 TITIFI PHENIX G 80 132 31 1.00 0.80 539 -0.20 0.3 1.4 GAEC CHEVALLIER DE MAUVILLY 21510 MAUVILLY
VERITE 23-06-2024 SUPERBOY QUESTION O MALLEY AS 138 34 2.30 2.30 293 0.50 0.2 1.0 GAEC DES ORMEAUX 21510 MEULSON
VAGALAM 23-06-2024 SATURNE PLUME LOUSTIC AS 131 23 0.50 1.60 399 0.60 -0.3 -0.2 SCEA DU THOREY 21510 QUEMIGNY SUR SEINE
VARYLISE 22-06-2024 SUPERBOY TATICARDIE YULE G 80 139 44 1.70 1.90 656 0.20 0.6 1.1 GAEC DU QUART D'HEURE 15340 PUYCAPEL
VELOUR 22-06-2024 GUY SAHARA SEVILLA AS 149 30 1.30 -0.80 507 0.80 0.8 1.0 SCEA DE LA PERRIERE 21330 LAIGNES
VERITA 22-06-2024 NASHVILLE RITA BENDER G 83 148 28 0.40 -0.30 600 0.10 2.0 2.0 GAEC CHANGARNIER 21290 MONTMOYEN
VITANI 22-06-2024 PACTOLE SIMBA IFEELING AS 136 33 1.80 4.10 287 1.20 -0.1 0.1 M LHONNEUR 50680 AIREL
VIETNAM 21-06-2024 THOR TIANANMEN OPTIMAL G 76 157 29 1.20 -1.40 502 1.40 0.7 1.5 GAEC DE LA BELLERIE 12120 SALMIECH
VULCANIA 21-06-2024 SUPERBOY TEMPETE OPTIMAL G 80 158 61 1.10 0.90 1213 0.70 0.0 0.9 LEGTA LA BAROTTE - 21400 CHATILLON SUR SEINE